createdAt,value
2019-05-03T00:00:42.632Z,4.17
2019-05-03T00:03:12.861Z,3.97
2019-05-03T00:05:45.508Z,4.07
2019-05-03T00:08:14.855Z,4.67
2019-05-03T00:10:44.302Z,4.00
2019-05-03T00:13:13.676Z,4.23
2019-05-03T00:15:57.969Z,4.40
2019-05-03T00:18:27.341Z,4.50
2019-05-03T00:20:56.871Z,4.13
2019-05-03T00:23:26.213Z,4.27
2019-05-03T00:25:55.563Z,5.73
2019-05-03T00:28:24.904Z,4.90
2019-05-03T00:30:54.235Z,4.17
2019-05-03T00:33:23.591Z,4.83
2019-05-03T00:36:27.046Z,4.37
2019-05-03T00:39:01.960Z,3.50
2019-05-03T00:41:32.034Z,3.97
2019-05-03T00:44:02.249Z,4.23
2019-05-03T00:46:32.717Z,3.87
2019-05-03T00:49:03.820Z,4.50
2019-05-03T00:51:33.334Z,3.90
2019-05-03T00:54:02.672Z,4.70
2019-05-03T00:56:32.205Z,5.17
2019-05-03T00:59:02.160Z,4.80
2019-05-03T01:01:32.132Z,5.43
2019-05-03T01:04:01.895Z,5.37
2019-05-03T01:06:31.826Z,5.23
2019-05-03T01:09:02.679Z,5.53
2019-05-03T01:11:32.485Z,6.20
2019-05-03T01:14:02.653Z,6.13
2019-05-03T01:16:32.083Z,5.97
2019-05-03T01:19:02.618Z,5.77
2019-05-03T01:21:32.046Z,5.07
2019-05-03T01:24:01.723Z,5.10
2019-05-03T01:26:31.922Z,5.63
2019-05-03T01:29:02.708Z,4.57
2019-05-03T01:31:32.149Z,5.60
2019-05-03T01:34:02.336Z,4.80
2019-05-03T01:36:32.216Z,5.43
2019-05-03T01:39:02.128Z,4.40
2019-05-03T01:41:32.369Z,4.67
2019-05-03T01:44:02.035Z,4.50
2019-05-03T01:46:31.728Z,4.50
2019-05-03T01:49:26.358Z,3.87
2019-05-03T01:52:02.406Z,3.97
2019-05-03T01:54:32.205Z,3.73
2019-05-03T01:57:02.416Z,3.90
2019-05-03T01:59:32.161Z,3.63
2019-05-03T02:02:08.117Z,3.67
2019-05-03T02:04:41.793Z,3.57
2019-05-03T02:07:11.725Z,3.37
2019-05-03T02:09:41.727Z,3.47
2019-05-03T02:12:12.711Z,3.43
2019-05-03T02:14:42.314Z,3.50
2019-05-03T02:17:12.394Z,3.60
2019-05-03T02:19:42.249Z,3.87
2019-05-03T02:22:12.046Z,4.27
2019-05-03T02:24:42.258Z,4.27
2019-05-03T02:27:12.769Z,3.50
2019-05-03T02:29:42.211Z,4.43
2019-05-03T02:32:13.200Z,4.53
2019-05-03T02:34:43.969Z,4.00
2019-05-03T02:37:14.068Z,4.30
2019-05-03T02:39:43.454Z,4.07
2019-05-03T02:42:15.830Z,4.37
2019-05-03T02:44:46.223Z,4.13
2019-05-03T02:47:35.564Z,4.20
2019-05-03T02:50:16.451Z,3.83
2019-05-03T02:52:45.810Z,3.90
2019-05-03T02:55:16.412Z,4.63
2019-05-03T02:57:46.527Z,3.70
2019-05-03T03:00:18.718Z,3.73
2019-05-03T03:02:48.058Z,3.83
2019-05-03T03:05:17.431Z,4.37
2019-05-03T03:07:48.700Z,4.40
2019-05-03T03:10:18.254Z,4.63
2019-05-03T03:12:50.855Z,4.60
2019-05-03T03:15:20.225Z,5.00
2019-05-03T03:17:52.246Z,5.40
2019-05-03T03:20:21.578Z,5.47
2019-05-03T03:22:55.589Z,4.57
2019-05-03T03:25:28.567Z,5.33
2019-05-03T03:28:01.645Z,5.17
2019-05-03T03:31:20.778Z,5.77
2019-05-03T03:33:49.861Z,6.30
2019-05-03T03:36:53.313Z,7.00
2019-05-03T03:38:50.881Z,6.83
2019-05-03T03:41:21.157Z,6.33
2019-05-03T03:43:55.772Z,6.10
2019-05-03T03:46:26.969Z,7.60
2019-05-03T03:48:56.943Z,6.83
2019-05-03T03:51:27.734Z,7.13
2019-05-03T03:53:59.863Z,7.87
2019-05-03T03:56:32.702Z,8.73
2019-05-03T03:59:02.936Z,8.23
2019-05-03T04:01:34.933Z,9.10
2019-05-03T04:04:05.568Z,8.60
2019-05-03T04:06:41.599Z,8.30
2019-05-03T04:09:11.136Z,8.03
2019-05-03T04:11:41.407Z,7.00
2019-05-03T04:14:16.128Z,7.53
2019-05-03T04:17:05.878Z,7.53
2019-05-03T04:19:36.404Z,7.43
2019-05-03T04:22:06.139Z,7.60
2019-05-03T04:24:35.881Z,8.13
2019-05-03T04:27:15.539Z,7.97
2019-05-03T04:29:38.642Z,7.30
2019-05-03T04:32:09.531Z,7.50
2019-05-03T04:34:38.954Z,7.27
2019-05-03T04:37:08.341Z,7.57
2019-05-03T04:39:37.681Z,6.97
2019-05-03T04:42:07.177Z,6.57
2019-05-03T04:44:36.538Z,6.27
2019-05-03T04:47:06.785Z,6.67
2019-05-03T04:49:36.653Z,6.27
2019-05-03T04:52:06.405Z,6.77
2019-05-03T04:54:56.820Z,5.83
2019-05-03T04:57:39.856Z,5.97
2019-05-03T04:59:57.501Z,6.43
2019-05-03T05:02:26.849Z,6.90
2019-05-03T05:04:56.221Z,5.50
2019-05-03T05:07:26.404Z,5.87
2019-05-03T05:09:56.492Z,5.50
2019-05-03T05:12:25.901Z,5.60
2019-05-03T05:14:56.546Z,5.33
2019-05-03T05:17:36.212Z,5.30
2019-05-03T05:20:14.428Z,5.57
2019-05-03T05:22:45.291Z,5.37
2019-05-03T05:25:18.330Z,5.30
2019-05-03T05:28:04.707Z,5.43
2019-05-03T05:30:35.300Z,4.87
2019-05-03T05:33:06.486Z,4.60
2019-05-03T05:35:35.832Z,4.67
2019-05-03T05:38:05.163Z,4.47
2019-05-03T05:40:35.021Z,4.07
2019-05-03T05:43:04.889Z,4.60
2019-05-03T05:45:34.971Z,4.10
2019-05-03T05:48:08.090Z,4.13
2019-05-03T05:50:44.768Z,4.10
2019-05-03T05:53:15.253Z,4.20
2019-05-03T05:56:12.507Z,4.17
2019-05-03T05:58:55.374Z,4.63
2019-05-03T06:01:38.311Z,4.13
2019-05-03T06:04:09.956Z,4.57
2019-05-03T06:06:57.853Z,4.60
2019-05-03T06:09:55.338Z,4.40
2019-05-03T06:15:51.844Z,4.80
2019-05-03T06:18:26.238Z,4.63
2019-05-03T06:21:20.928Z,4.70
2019-05-03T06:23:56.350Z,4.73
2019-05-03T06:26:34.878Z,4.60
2019-05-03T06:29:04.686Z,5.03
2019-05-03T06:32:11.400Z,5.40
2019-05-03T06:34:40.752Z,7.80
2019-05-03T06:37:14.799Z,5.67
2019-05-03T06:39:45.372Z,6.47
2019-05-03T06:42:22.836Z,6.30
2019-05-03T06:44:54.120Z,6.70
2019-05-03T06:47:25.290Z,5.93
2019-05-03T06:49:55.221Z,6.37
2019-05-03T06:52:29.047Z,6.03
2019-05-03T06:55:00.487Z,5.73
2019-05-03T06:57:26.991Z,5.03
2019-05-03T07:00:30.640Z,4.90
2019-05-03T07:03:05.643Z,5.70
2019-05-03T07:05:54.900Z,5.87
2019-05-03T07:08:51.536Z,5.97
2019-05-03T07:11:20.894Z,6.50
2019-05-03T07:13:50.269Z,6.47
2019-05-03T07:16:19.635Z,6.70
2019-05-03T07:18:49.004Z,8.10
2019-05-03T07:21:18.367Z,8.43
2019-05-03T07:23:47.714Z,8.60
2019-05-03T07:26:17.081Z,9.10
2019-05-03T07:28:49.956Z,8.67
2019-05-03T07:31:17.540Z,8.63
2019-05-03T07:33:46.884Z,8.33
2019-05-03T07:36:16.264Z,8.67
2019-05-03T07:38:45.616Z,8.33
2019-05-03T07:41:15.054Z,7.87
2019-05-03T07:43:45.118Z,7.97
2019-05-03T07:46:14.814Z,8.23
2019-05-03T07:48:45.697Z,7.07
2019-05-03T07:51:15.067Z,8.03
2019-05-03T07:53:45.162Z,7.40
2019-05-03T07:56:17.455Z,6.47
2019-05-03T07:58:59.307Z,5.40
2019-05-03T08:01:28.173Z,5.43
2019-05-03T08:03:57.646Z,4.87
2019-05-03T08:06:26.990Z,5.10
2019-05-03T08:08:56.350Z,5.03
2019-05-03T08:11:25.718Z,4.80
2019-05-03T08:13:55.157Z,4.93
2019-05-03T08:16:25.236Z,5.00
2019-05-03T08:18:55.784Z,4.63
2019-05-03T08:21:25.483Z,5.10
2019-05-03T08:23:55.700Z,4.90
2019-05-03T08:26:25.891Z,4.80
2019-05-03T08:28:55.343Z,5.40
2019-05-03T08:31:38.834Z,4.97
2019-05-03T08:34:27.093Z,4.63
2019-05-03T08:37:05.175Z,4.03
2019-05-03T08:39:35.632Z,3.73
2019-05-03T08:42:12.155Z,3.90
2019-05-03T08:44:41.506Z,4.00
2019-05-03T08:47:10.850Z,4.03
2019-05-03T08:49:40.221Z,4.27
2019-05-03T08:52:09.577Z,4.87
2019-05-03T08:54:38.952Z,4.87
2019-05-03T08:57:08.315Z,3.67
2019-05-03T08:59:37.671Z,4.37
2019-05-03T09:02:14.127Z,4.13
2019-05-03T09:04:42.686Z,3.93
2019-05-03T09:07:09.198Z,3.80
2019-05-03T09:09:51.288Z,4.10
2019-05-03T09:12:20.657Z,4.17
2019-05-03T09:14:50.010Z,4.03
2019-05-03T09:17:19.370Z,3.70
2019-05-03T09:19:48.763Z,4.20
2019-05-03T09:22:18.199Z,4.13
2019-05-03T09:24:47.567Z,4.17
2019-05-03T09:27:16.942Z,3.93
2019-05-03T09:29:46.387Z,3.80
2019-05-03T09:32:15.758Z,3.73
2019-05-03T09:34:45.127Z,3.77
2019-05-03T09:37:15.506Z,3.83
2019-05-03T09:39:44.886Z,3.73
2019-05-03T09:42:15.419Z,3.03
2019-05-03T09:44:45.200Z,3.30
2019-05-03T09:47:14.796Z,3.70
2019-05-03T09:49:45.386Z,3.90
2019-05-03T09:52:15.994Z,3.40
2019-05-03T09:54:49.459Z,3.13
2019-05-03T09:57:18.803Z,3.20
2019-05-03T09:59:57.179Z,3.00
2019-05-03T10:02:19.268Z,3.00
2019-05-03T10:04:48.612Z,3.03
2019-05-03T10:07:18.066Z,2.80
2019-05-03T10:09:47.422Z,2.80
2019-05-03T10:12:20.436Z,2.67
2019-05-03T10:14:49.793Z,2.60
2019-05-03T10:17:38.077Z,2.70
2019-05-03T10:20:09.111Z,2.70
2019-05-03T10:22:38.460Z,2.90
2019-05-03T10:25:08.111Z,2.80
2019-05-03T10:27:46.045Z,2.93
2019-05-03T10:30:20.235Z,3.13
2019-05-03T10:32:55.385Z,3.10
2019-05-03T10:35:24.748Z,2.63
2019-05-03T10:37:54.856Z,2.70
2019-05-03T10:40:27.808Z,2.70
2019-05-03T10:42:57.264Z,2.70
2019-05-03T10:45:28.128Z,2.50
2019-05-03T10:47:57.557Z,2.70
2019-05-03T10:50:26.912Z,2.73
2019-05-03T10:53:05.287Z,2.60
2019-05-03T10:55:35.783Z,2.70
2019-05-03T10:58:19.066Z,2.50
2019-05-03T11:00:53.388Z,2.93
2019-05-03T11:03:22.065Z,2.57
2019-05-03T11:05:51.444Z,3.00
2019-05-03T11:08:20.779Z,2.87
2019-05-03T11:10:50.145Z,2.83
2019-05-03T11:13:19.491Z,2.63
2019-05-03T11:15:48.848Z,2.60
2019-05-03T11:18:18.214Z,2.30
2019-05-03T11:20:47.547Z,2.53
2019-05-03T11:23:16.891Z,2.40
2019-05-03T11:25:46.359Z,2.47
2019-05-03T11:28:20.736Z,2.30
2019-05-03T11:30:55.363Z,2.63
2019-05-03T11:33:27.656Z,2.30
2019-05-03T11:36:21.852Z,2.80
2019-05-03T11:38:51.199Z,2.43
2019-05-03T11:41:30.280Z,2.57
2019-05-03T11:43:51.615Z,3.17
2019-05-03T11:46:20.981Z,2.77
2019-05-03T11:48:50.317Z,3.20
2019-05-03T11:51:19.700Z,3.60
2019-05-03T11:53:49.036Z,3.63
2019-05-03T11:56:19.613Z,4.60
2019-05-03T11:58:49.051Z,3.93
2019-05-03T12:01:25.769Z,4.27
2019-05-03T12:03:58.865Z,4.93
2019-05-03T12:06:28.213Z,4.97
2019-05-03T12:08:57.591Z,5.57
2019-05-03T12:11:28.602Z,5.13
2019-05-03T12:14:15.485Z,4.83
2019-05-03T12:17:19.478Z,4.37
2019-05-03T12:19:37.755Z,4.30
2019-05-03T12:22:06.707Z,4.30
2019-05-03T12:24:37.225Z,4.93
2019-05-03T12:27:06.906Z,4.03
2019-05-03T12:29:36.243Z,4.30
2019-05-03T12:32:05.600Z,4.13
2019-05-03T12:34:35.335Z,4.33
2019-05-03T12:37:05.307Z,4.70
2019-05-03T12:39:35.733Z,4.17
2019-05-03T12:42:06.606Z,4.10
2019-05-03T12:44:35.972Z,3.80
2019-05-03T12:47:06.148Z,3.67
2019-05-03T12:49:36.052Z,3.77
2019-05-03T12:52:05.594Z,4.00
2019-05-03T12:54:35.536Z,3.60
2019-05-03T12:57:05.386Z,3.80
2019-05-03T13:00:05.027Z,4.10
2019-05-03T13:02:44.648Z,3.77
2019-05-03T13:05:15.524Z,4.17
2019-05-03T13:08:05.552Z,3.57
2019-05-03T13:10:35.035Z,4.23
2019-05-03T13:13:04.375Z,4.20
2019-05-03T13:15:35.184Z,3.80
2019-05-03T13:18:05.008Z,3.77
2019-05-03T13:20:35.990Z,4.17
2019-05-03T13:23:05.609Z,3.93
2019-05-03T13:25:35.627Z,4.23
2019-05-03T13:28:05.541Z,3.00
2019-05-03T13:30:34.935Z,3.60
2019-05-03T13:33:05.767Z,4.70
2019-05-03T13:35:35.324Z,4.73
2019-05-03T13:38:04.685Z,4.57
2019-05-03T13:40:35.884Z,4.60
2019-05-03T13:43:06.624Z,5.03
2019-05-03T13:45:36.172Z,5.80
2019-05-03T13:48:05.534Z,5.53
2019-05-03T13:50:35.192Z,5.97
2019-05-03T13:53:04.956Z,6.80
2019-05-03T13:55:35.294Z,7.00
2019-05-03T13:58:05.206Z,6.17
2019-05-03T14:00:34.748Z,6.37
2019-05-03T14:03:04.660Z,6.50
2019-05-03T14:05:35.204Z,6.17
2019-05-03T14:08:05.205Z,6.43
2019-05-03T14:10:35.974Z,5.83
2019-05-03T14:13:05.731Z,6.63
2019-05-03T14:15:35.111Z,6.30
2019-05-03T14:18:05.945Z,6.17
2019-05-03T14:20:55.060Z,6.63
2019-05-03T14:23:25.327Z,5.43
2019-05-03T14:25:55.210Z,6.63
2019-05-03T14:28:25.263Z,6.37
2019-05-03T14:30:54.987Z,6.37
2019-05-03T14:33:24.840Z,8.10
2019-05-03T14:35:55.345Z,7.17
2019-05-03T14:38:25.436Z,7.70
2019-05-03T14:40:55.268Z,6.87
2019-05-03T14:43:24.997Z,8.03
2019-05-03T14:45:54.986Z,7.47
2019-05-03T14:48:24.969Z,8.23
2019-05-03T14:50:54.940Z,8.23
2019-05-03T14:53:25.636Z,7.30
2019-05-03T14:56:05.037Z,7.50
2019-05-03T14:59:09.747Z,7.40
2019-05-03T15:01:47.939Z,7.67
2019-05-03T15:04:25.421Z,8.53
2019-05-03T15:06:54.926Z,7.73
2019-05-03T15:09:25.987Z,7.33
2019-05-03T15:11:55.432Z,8.37
2019-05-03T15:14:25.179Z,7.80
2019-05-03T15:16:55.734Z,8.27
2019-05-03T15:19:25.503Z,8.43
2019-05-03T15:21:54.909Z,8.30
2019-05-03T15:24:25.228Z,8.80
2019-05-03T15:26:55.394Z,8.50
2019-05-03T15:29:24.942Z,8.90
2019-05-03T15:31:55.339Z,8.93
2019-05-03T15:34:24.943Z,9.10
2019-05-03T15:36:54.786Z,9.43
2019-05-03T15:39:24.320Z,7.90
2019-05-03T15:41:54.409Z,9.87
2019-05-03T15:44:45.831Z,9.70
2019-05-03T15:47:20.050Z,9.07
2019-05-03T15:49:49.467Z,8.50
2019-05-03T15:52:18.809Z,8.43
2019-05-03T15:54:48.268Z,6.97
2019-05-03T15:57:17.721Z,7.53
2019-05-03T15:59:47.177Z,6.53
2019-05-03T16:02:16.576Z,6.67
2019-05-03T16:04:45.963Z,6.57
2019-05-03T16:07:15.386Z,6.07
2019-05-03T16:09:44.740Z,6.50
2019-05-03T16:12:14.566Z,5.90
2019-05-03T16:14:44.573Z,5.50
2019-05-03T16:17:14.699Z,5.70
2019-05-03T16:19:45.061Z,5.80
2019-05-03T16:22:15.147Z,5.27
2019-05-03T16:24:47.021Z,4.83
2019-05-03T16:27:24.840Z,4.87
2019-05-03T16:30:05.228Z,4.00
2019-05-03T16:32:36.450Z,3.40
2019-05-03T16:35:05.852Z,4.10
2019-05-03T16:37:35.319Z,3.77
2019-05-03T16:40:05.183Z,4.73
2019-05-03T16:42:34.991Z,4.30
2019-05-03T16:45:05.616Z,4.60
2019-05-03T16:47:35.489Z,4.63
2019-05-03T16:50:06.443Z,4.60
2019-05-03T16:52:35.839Z,4.93
2019-05-03T16:55:05.326Z,4.37
2019-05-03T16:57:40.621Z,3.77
2019-05-03T17:00:10.164Z,3.80
2019-05-03T17:02:39.545Z,3.70
2019-05-03T17:05:19.674Z,2.60
2019-05-03T17:08:11.359Z,3.43
2019-05-03T17:10:45.425Z,3.40
2019-05-03T17:13:14.941Z,2.50
2019-05-03T17:15:44.269Z,2.27
2019-05-03T17:18:14.680Z,3.23
2019-05-03T17:20:45.312Z,3.13
2019-05-03T17:23:15.435Z,3.33
2019-05-03T17:25:45.087Z,3.10
2019-05-03T17:28:15.676Z,3.40
2019-05-03T17:30:45.192Z,2.97
2019-05-03T17:33:16.112Z,3.10
2019-05-03T17:35:45.580Z,2.93
2019-05-03T17:38:14.983Z,2.83
2019-05-03T17:41:01.942Z,2.40
2019-05-03T17:43:56.324Z,2.20
2019-05-03T17:46:25.661Z,2.50
2019-05-03T17:48:55.005Z,2.60
2019-05-03T17:51:42.184Z,2.43
2019-05-03T17:54:30.532Z,2.47
2019-05-03T17:57:04.612Z,2.70
2019-05-03T17:59:46.916Z,2.23
2019-05-03T18:02:33.247Z,2.70
2019-05-03T18:05:21.545Z,3.07
2019-05-03T18:08:07.919Z,2.60
2019-05-03T18:10:38.477Z,3.00
2019-05-03T18:13:07.856Z,2.90
2019-05-03T18:15:37.378Z,2.57
2019-05-03T18:18:06.723Z,2.87
2019-05-03T18:20:36.099Z,2.40
2019-05-03T18:23:05.488Z,2.50
2019-05-03T18:25:35.478Z,2.60
2019-05-03T18:28:04.964Z,2.70
2019-05-03T18:30:34.912Z,2.70
2019-05-03T18:33:04.862Z,2.70
2019-05-03T18:35:34.272Z,2.90
2019-05-03T18:38:03.649Z,2.70
2019-05-03T18:40:35.433Z,3.40
2019-05-03T18:43:16.912Z,2.43
2019-05-03T18:46:09.252Z,2.30
2019-05-03T18:48:38.605Z,3.00
2019-05-03T18:51:08.890Z,2.60
2019-05-03T18:53:38.245Z,2.60
2019-05-03T18:56:07.727Z,2.67
2019-05-03T18:58:37.074Z,3.23
2019-05-03T19:01:06.455Z,2.67
2019-05-03T19:03:35.905Z,3.00
2019-05-03T19:06:07.417Z,2.93
2019-05-03T19:09:05.320Z,3.00
2019-05-03T19:11:59.516Z,2.90
2019-05-03T19:14:28.871Z,2.77
2019-05-03T19:17:05.181Z,2.53
2019-05-03T19:19:37.741Z,2.80
2019-05-03T19:22:07.305Z,2.73
2019-05-03T19:24:36.768Z,3.47
2019-05-03T19:27:07.369Z,4.10
2019-05-03T19:29:37.054Z,3.17
2019-05-03T19:32:06.437Z,2.70
2019-05-03T19:34:47.689Z,2.33
2019-05-03T19:37:06.995Z,3.07
2019-05-03T19:39:36.369Z,2.40
2019-05-03T19:42:05.708Z,3.00
2019-05-03T19:44:36.944Z,2.70
2019-05-03T19:47:06.827Z,3.10
2019-05-03T19:49:36.279Z,2.60
2019-05-03T19:52:05.601Z,2.47
2019-05-03T19:54:36.552Z,2.83
2019-05-03T19:57:06.071Z,2.93
2019-05-03T19:59:56.737Z,2.60
2019-05-03T20:02:45.409Z,2.63
2019-05-03T20:05:34.446Z,2.50
2019-05-03T20:08:18.808Z,2.77
2019-05-03T20:10:48.170Z,2.67
2019-05-03T20:13:17.579Z,2.40
2019-05-03T20:15:49.755Z,2.80
2019-05-03T20:18:19.125Z,2.57
2019-05-03T20:20:48.459Z,2.70
2019-05-03T20:23:17.836Z,2.90
2019-05-03T20:25:47.199Z,3.00
2019-05-03T20:28:16.528Z,2.60
2019-05-03T20:30:45.881Z,3.20
2019-05-03T20:33:15.229Z,2.83
2019-05-03T20:35:45.175Z,3.07
2019-05-03T20:38:15.249Z,3.17
2019-05-03T20:40:45.077Z,3.20
2019-05-03T20:43:37.109Z,3.00
2019-05-03T20:46:16.519Z,3.40
2019-05-03T20:48:48.089Z,3.00
2019-05-03T20:51:17.454Z,2.67
2019-05-03T20:53:46.779Z,3.10
2019-05-03T20:56:16.156Z,3.30
2019-05-03T20:58:45.474Z,2.77
2019-05-03T21:01:15.333Z,2.90
2019-05-03T21:04:04.693Z,3.30
2019-05-03T21:06:35.828Z,2.90
2019-05-03T21:09:07.554Z,2.93
2019-05-03T21:11:36.913Z,3.50
2019-05-03T21:14:06.272Z,3.60
2019-05-03T21:16:52.094Z,3.30
2019-05-03T21:19:35.286Z,3.10
2019-05-03T21:22:14.493Z,3.20
2019-05-03T21:25:01.628Z,3.83
2019-05-03T21:27:30.959Z,3.27
2019-05-03T21:30:00.310Z,3.17
2019-05-03T21:32:29.633Z,2.90
2019-05-03T21:35:00.172Z,3.20
2019-05-03T21:37:29.529Z,3.13
2019-05-03T21:40:00.431Z,3.40
2019-05-03T21:42:29.774Z,3.50
2019-05-03T21:44:59.132Z,3.30
2019-05-03T21:47:38.710Z,2.97
2019-05-03T21:50:09.695Z,3.43
2019-05-03T21:52:39.044Z,3.97
2019-05-03T21:55:08.402Z,3.57
2019-05-03T21:57:37.736Z,3.23
2019-05-03T22:00:08.179Z,3.47
2019-05-03T22:02:37.526Z,4.10
2019-05-03T22:05:07.486Z,3.50
2019-05-03T22:07:36.817Z,3.50
2019-05-03T22:10:07.244Z,3.70
2019-05-03T22:12:36.567Z,3.67
2019-05-03T22:15:21.853Z,3.20
2019-05-03T22:18:04.744Z,3.63
2019-05-03T22:20:47.740Z,3.23
2019-05-03T22:23:36.703Z,3.07
2019-05-03T22:26:06.115Z,2.80
2019-05-03T22:28:35.443Z,2.77
2019-05-03T22:31:06.776Z,2.80
2019-05-03T22:33:35.949Z,3.00
2019-05-03T22:36:08.734Z,2.63
2019-05-03T22:38:38.432Z,3.00
2019-05-03T22:41:09.602Z,3.10
2019-05-03T22:43:38.966Z,2.40
2019-05-03T22:46:10.435Z,3.40
2019-05-03T22:48:39.966Z,2.83
2019-05-03T22:51:09.302Z,2.50
2019-05-03T22:53:38.679Z,2.23
2019-05-03T22:56:08.026Z,2.20
2019-05-03T22:58:37.372Z,2.97
2019-05-03T23:01:06.750Z,2.57
2019-05-03T23:03:44.829Z,3.00
2019-05-03T23:06:22.440Z,2.40
2019-05-03T23:08:47.073Z,2.17
2019-05-03T23:11:16.447Z,2.97
2019-05-03T23:14:01.618Z,2.57
2019-05-03T23:16:35.662Z,2.23
2019-05-03T23:19:05.505Z,2.03
2019-05-03T23:21:54.483Z,2.23
2019-05-03T23:24:24.740Z,2.17
2019-05-03T23:26:54.147Z,2.13
2019-05-03T23:29:23.501Z,2.20
2019-05-03T23:31:52.848Z,2.70
2019-05-03T23:34:22.189Z,2.40
2019-05-03T23:36:51.547Z,2.47
2019-05-03T23:39:20.887Z,2.23
2019-05-03T23:41:50.229Z,2.97
2019-05-03T23:44:20.616Z,2.20
2019-05-03T23:47:00.436Z,2.40
2019-05-03T23:49:29.783Z,2.20
2019-05-03T23:52:02.160Z,2.20
2019-05-03T23:54:31.680Z,2.80
2019-05-03T23:57:01.058Z,2.50
2019-05-03T23:59:30.377Z,2.60
